createdAt,value
2022-10-08T00:01:24.982Z,10.15
2022-10-08T00:03:53.552Z,13.35
2022-10-08T00:06:24.050Z,13.63
2022-10-08T00:08:58.449Z,10.25
2022-10-08T00:11:28.885Z,11.75
2022-10-08T00:13:56.520Z,9.13
2022-10-08T00:16:23.886Z,10.27
2022-10-08T00:18:53.080Z,11.38
2022-10-08T00:21:25.600Z,9.25
2022-10-08T00:23:53.600Z,12.27
2022-10-08T00:26:25.921Z,10.18
2022-10-08T00:28:57.292Z,10.52
2022-10-08T00:31:27.627Z,11.63
2022-10-08T00:34:00.979Z,11.15
2022-10-08T00:36:31.719Z,11.10
2022-10-08T00:39:11.594Z,8.77
2022-10-08T00:41:40.162Z,11.23
2022-10-08T00:44:44.961Z,12.48
2022-10-08T00:47:24.326Z,12.43
2022-10-08T00:49:56.031Z,11.93
2022-10-08T00:52:26.759Z,8.85
2022-10-08T00:54:54.259Z,9.50
2022-10-08T00:57:22.081Z,9.00
2022-10-08T00:59:49.936Z,9.18
2022-10-08T01:02:19.325Z,11.35
2022-10-08T01:04:47.893Z,8.85
2022-10-08T01:07:26.206Z,11.00
2022-10-08T01:09:59.423Z,9.27
2022-10-08T01:12:47.247Z,14.07
2022-10-08T01:15:26.985Z,10.75
2022-10-08T01:18:07.308Z,7.80
2022-10-08T01:20:41.799Z,8.57
2022-10-08T01:23:36.132Z,8.23
2022-10-08T01:26:30.705Z,8.70
2022-10-08T01:29:12.974Z,9.98
2022-10-08T01:31:48.332Z,8.38
2022-10-08T01:34:37.627Z,9.88
2022-10-08T01:37:09.728Z,10.18
2022-10-08T01:42:08.506Z,8.15
2022-10-08T01:44:48.104Z,8.90
2022-10-08T01:47:21.420Z,6.95
2022-10-08T01:49:54.255Z,8.45
2022-10-08T01:52:26.995Z,10.95
2022-10-08T01:55:02.310Z,10.15
2022-10-08T01:57:33.254Z,8.43
2022-10-08T02:00:06.974Z,8.63
2022-10-08T02:02:40.518Z,8.40
2022-10-08T02:05:09.138Z,11.68
2022-10-08T02:07:39.926Z,10.00
2022-10-08T02:10:09.672Z,7.38
2022-10-08T02:12:40.151Z,7.30
2022-10-08T02:15:15.168Z,7.63
2022-10-08T02:17:57.447Z,8.18
2022-10-08T02:23:29.816Z,11.02
2022-10-08T02:26:02.266Z,7.68
2022-10-08T02:28:38.293Z,9.30
2022-10-08T02:31:16.936Z,7.78
2022-10-08T02:33:52.343Z,9.05
2022-10-08T02:36:25.206Z,12.55
2022-10-08T02:38:59.385Z,18.83
2022-10-08T02:41:31.057Z,9.88
2022-10-08T02:44:03.059Z,7.57
2022-10-08T02:49:07.352Z,8.20
2022-10-08T02:51:39.705Z,10.98
2022-10-08T02:54:08.831Z,9.25
2022-10-08T02:56:49.238Z,8.23
2022-10-08T02:59:20.255Z,11.10
2022-10-08T03:01:54.243Z,10.95
2022-10-08T03:04:32.845Z,10.10
2022-10-08T03:07:00.906Z,11.93
2022-10-08T03:09:42.194Z,7.47
2022-10-08T03:12:10.662Z,7.67
2022-10-08T03:14:41.042Z,9.75
2022-10-08T03:17:09.669Z,10.07
2022-10-08T03:19:38.165Z,9.38
2022-10-08T03:22:07.437Z,10.35
2022-10-08T03:24:36.119Z,7.78
2022-10-08T03:27:04.409Z,9.00
2022-10-08T03:29:31.817Z,11.90
2022-10-08T03:31:59.096Z,8.93
2022-10-08T03:34:26.514Z,10.00
2022-10-08T03:36:53.794Z,9.80
2022-10-08T03:39:21.215Z,10.07
2022-10-08T03:41:48.517Z,9.77
2022-10-08T03:44:15.834Z,10.52
2022-10-08T03:46:43.127Z,11.88
2022-10-08T03:49:10.496Z,10.30
2022-10-08T03:51:37.865Z,7.43
2022-10-08T03:54:08.568Z,7.97
2022-10-08T03:56:35.919Z,11.80
2022-10-08T03:59:04.043Z,10.27
2022-10-08T04:01:31.422Z,6.63
2022-10-08T04:03:58.889Z,10.88
2022-10-08T04:06:26.257Z,11.75
2022-10-08T04:08:56.049Z,10.65
2022-10-08T04:11:23.356Z,9.77
2022-10-08T04:13:50.662Z,9.63
2022-10-08T04:16:18.798Z,9.45
2022-10-08T04:18:47.916Z,10.90
2022-10-08T04:21:17.848Z,8.60
2022-10-08T04:23:47.316Z,9.02
2022-10-08T04:26:14.837Z,9.10
2022-10-08T04:28:44.524Z,13.27
2022-10-08T04:31:16.708Z,10.82
2022-10-08T04:33:46.207Z,8.35
2022-10-08T04:36:16.483Z,8.77
2022-10-08T04:38:44.791Z,9.32
2022-10-08T04:41:16.854Z,7.43
2022-10-08T04:46:15.040Z,13.98
2022-10-08T04:48:47.434Z,11.65
2022-10-08T04:51:15.676Z,9.75
2022-10-08T04:53:43.400Z,8.75
2022-10-08T04:56:22.652Z,11.23
2022-10-08T05:01:24.032Z,11.35
2022-10-08T05:03:53.847Z,12.32
2022-10-08T05:06:24.393Z,14.15
2022-10-08T05:08:52.165Z,9.88
2022-10-08T05:11:20.091Z,11.07
2022-10-08T05:13:52.333Z,11.77
2022-10-08T05:16:20.556Z,16.20
2022-10-08T05:18:50.580Z,10.27
2022-10-08T05:21:21.279Z,15.07
2022-10-08T05:24:00.911Z,13.20
2022-10-08T05:26:56.850Z,10.65
2022-10-08T05:29:20.898Z,12.27
2022-10-08T05:31:48.248Z,9.27
2022-10-08T05:34:15.835Z,11.35
2022-10-08T05:36:43.243Z,11.45
2022-10-08T05:39:10.581Z,12.73
2022-10-08T05:41:38.606Z,12.55
2022-10-08T05:44:07.548Z,14.27
2022-10-08T05:46:36.539Z,11.02
2022-10-08T05:49:09.912Z,10.20
2022-10-08T05:51:38.531Z,13.52
2022-10-08T05:54:05.932Z,10.30
2022-10-08T05:56:33.295Z,10.50
2022-10-08T05:59:00.598Z,12.25
2022-10-08T06:01:31.424Z,15.48
2022-10-08T06:04:07.816Z,9.15
2022-10-08T06:06:41.001Z,11.48
2022-10-08T06:09:11.109Z,11.13
2022-10-08T06:11:38.674Z,13.10
2022-10-08T06:14:07.428Z,9.63
2022-10-08T06:16:35.218Z,11.27
2022-10-08T06:19:04.225Z,11.48
2022-10-08T06:21:31.758Z,11.93
2022-10-08T06:24:02.306Z,10.93
2022-10-08T06:26:35.691Z,12.00
2022-10-08T06:29:12.895Z,11.02
2022-10-08T06:31:40.715Z,13.27
2022-10-08T06:34:08.179Z,10.43
2022-10-08T06:36:37.600Z,11.55
2022-10-08T06:39:08.289Z,14.00
2022-10-08T06:41:36.010Z,9.50
2022-10-08T06:44:06.737Z,10.93
2022-10-08T06:46:35.214Z,10.90
2022-10-08T06:49:03.271Z,14.35
2022-10-08T06:51:30.655Z,14.40
2022-10-08T06:54:04.362Z,11.30
2022-10-08T06:56:36.050Z,16.13
2022-10-08T06:59:05.296Z,12.10
2022-10-08T07:04:05.382Z,11.07
2022-10-08T07:06:33.338Z,16.23
2022-10-08T07:09:03.194Z,13.10
2022-10-08T07:11:32.084Z,10.60
2022-10-08T07:13:59.722Z,13.20
2022-10-08T07:16:28.162Z,8.73
2022-10-08T07:18:58.658Z,12.70
2022-10-08T07:21:27.713Z,11.13
2022-10-08T07:23:55.529Z,15.25
2022-10-08T07:26:27.694Z,11.70
2022-10-08T07:29:01.194Z,9.77
2022-10-08T07:31:31.811Z,12.95
2022-10-08T07:34:00.882Z,11.27
2022-10-08T07:36:29.383Z,8.95
2022-10-08T07:38:58.816Z,12.65
2022-10-08T07:41:27.129Z,16.98
2022-10-08T07:43:58.392Z,9.90
2022-10-08T07:46:30.070Z,9.05
2022-10-08T07:48:59.209Z,10.15
2022-10-08T07:51:28.007Z,9.23
2022-10-08T07:54:00.204Z,9.95
2022-10-08T07:56:31.017Z,11.52
2022-10-08T07:59:00.179Z,12.30
2022-10-08T08:01:30.038Z,11.93
2022-10-08T08:04:00.964Z,10.55
2022-10-08T08:06:29.533Z,14.77
2022-10-08T08:08:57.098Z,10.50
2022-10-08T08:11:25.155Z,12.75
2022-10-08T08:13:52.910Z,11.45
2022-10-08T08:16:29.091Z,9.60
2022-10-08T08:18:59.372Z,13.02
2022-10-08T08:21:29.674Z,11.98
2022-10-08T08:23:58.959Z,8.32
2022-10-08T08:26:29.644Z,13.77
2022-10-08T08:28:59.771Z,16.20
2022-10-08T08:31:32.211Z,12.70
2022-10-08T08:34:02.779Z,10.15
2022-10-08T08:36:33.307Z,11.90
2022-10-08T08:39:01.317Z,9.37
2022-10-08T08:41:56.692Z,9.70
2022-10-08T08:44:25.170Z,7.80
2022-10-08T08:46:58.656Z,11.30
2022-10-08T08:49:40.573Z,9.88
2022-10-08T08:52:09.660Z,8.20
2022-10-08T08:54:37.018Z,7.78
2022-10-08T08:57:38.535Z,10.85
2022-10-08T09:00:18.534Z,8.13
2022-10-08T09:03:01.031Z,11.52
2022-10-08T09:05:33.522Z,15.00
2022-10-08T09:08:24.165Z,11.23
2022-10-08T09:11:00.015Z,9.48
2022-10-08T09:13:33.661Z,13.02
2022-10-08T09:16:01.583Z,14.52
2022-10-08T09:18:29.295Z,11.88
2022-10-08T09:20:56.667Z,9.85
2022-10-08T09:23:26.322Z,11.27
2022-10-08T09:26:33.677Z,10.38
2022-10-08T09:29:05.674Z,9.98
2022-10-08T09:31:39.205Z,11.73
2022-10-08T09:34:18.718Z,12.57
2022-10-08T09:36:50.729Z,7.55
2022-10-08T09:39:25.403Z,10.80
2022-10-08T09:42:07.837Z,15.50
2022-10-08T09:44:48.697Z,13.25
2022-10-08T09:47:24.168Z,13.88
2022-10-08T09:50:13.339Z,11.13
2022-10-08T09:52:41.670Z,9.43
2022-10-08T09:55:19.999Z,13.02
2022-10-08T09:57:51.244Z,10.68
2022-10-08T10:00:39.613Z,11.40
2022-10-08T10:03:15.583Z,8.57
2022-10-08T10:05:43.644Z,11.10
2022-10-08T10:08:53.941Z,15.55
2022-10-08T10:11:43.677Z,14.15
2022-10-08T10:14:21.824Z,16.23
2022-10-08T10:16:55.583Z,14.02
2022-10-08T10:19:28.751Z,15.10
2022-10-08T10:22:01.731Z,10.55
2022-10-08T10:24:52.228Z,16.75
2022-10-08T10:27:31.564Z,11.75
2022-10-08T10:30:25.440Z,13.40
2022-10-08T10:33:10.115Z,16.92
2022-10-08T10:35:45.719Z,16.27
2022-10-08T10:38:17.398Z,13.40
2022-10-08T10:41:26.371Z,15.10
2022-10-08T10:44:14.256Z,14.60
2022-10-08T10:46:49.663Z,13.00
2022-10-08T10:49:35.491Z,17.65
2022-10-08T10:52:24.773Z,10.73
2022-10-08T10:55:16.269Z,10.50
2022-10-08T10:58:11.213Z,18.42
2022-10-08T11:00:53.688Z,17.30
2022-10-08T11:03:34.293Z,18.25
2022-10-08T11:06:40.319Z,17.33
2022-10-08T11:09:07.585Z,16.63
2022-10-08T11:11:43.586Z,16.02
2022-10-08T11:14:37.408Z,14.98
2022-10-08T11:17:21.226Z,17.50
2022-10-08T11:20:20.336Z,19.30
2022-10-08T11:23:17.765Z,17.92
2022-10-08T11:26:19.071Z,17.50
2022-10-08T11:29:09.499Z,17.48
2022-10-08T11:31:52.881Z,16.55
2022-10-08T11:34:20.124Z,18.98
2022-10-08T11:37:20.665Z,22.40
2022-10-08T11:40:26.619Z,22.40
2022-10-08T11:43:07.236Z,20.38
2022-10-08T11:45:37.137Z,16.83
2022-10-08T11:48:31.631Z,23.60
2022-10-08T11:51:20.619Z,24.08
2022-10-08T11:53:59.773Z,18.90
2022-10-08T11:56:27.232Z,26.05
2022-10-08T11:59:02.163Z,24.00
2022-10-08T12:01:29.586Z,23.20
2022-10-08T12:04:22.295Z,20.10
2022-10-08T12:07:15.275Z,23.60
2022-10-08T12:10:09.046Z,22.40
2022-10-08T12:12:51.653Z,19.80
2022-10-08T12:15:25.034Z,19.45
2022-10-08T12:17:52.572Z,23.13
2022-10-08T12:20:19.949Z,20.58
2022-10-08T12:23:04.297Z,21.98
2022-10-08T12:25:39.021Z,22.60
2022-10-08T12:28:21.532Z,16.75
2022-10-08T12:30:58.633Z,18.30
2022-10-08T12:33:26.498Z,17.63
2022-10-08T12:36:28.185Z,20.08
2022-10-08T12:39:03.119Z,18.13
2022-10-08T12:42:04.064Z,21.95
2022-10-08T12:44:40.722Z,18.90
2022-10-08T12:47:26.584Z,17.45
2022-10-08T12:50:04.875Z,16.15
2022-10-08T12:52:36.319Z,16.50
2022-10-08T12:55:05.206Z,16.23
2022-10-08T12:57:37.386Z,18.40
2022-10-08T13:00:11.246Z,16.58
2022-10-08T13:02:42.040Z,16.98
2022-10-08T13:05:29.283Z,16.60
2022-10-08T13:07:57.270Z,15.10
2022-10-08T13:10:29.617Z,18.25
2022-10-08T13:13:05.364Z,21.00
2022-10-08T13:15:34.730Z,17.05
2022-10-08T13:18:21.850Z,16.77
2022-10-08T13:20:59.499Z,15.75
2022-10-08T13:23:35.083Z,12.82
2022-10-08T13:26:02.898Z,16.38
2022-10-08T13:28:58.696Z,15.85
2022-10-08T13:31:23.725Z,20.10
2022-10-08T13:33:51.271Z,17.02
2022-10-08T13:36:23.520Z,16.23
2022-10-08T13:38:51.629Z,16.77
2022-10-08T13:41:23.842Z,15.93
2022-10-08T13:43:51.470Z,19.38
2022-10-08T13:46:21.171Z,16.17
2022-10-08T13:48:48.475Z,14.95
2022-10-08T13:51:15.846Z,14.57
2022-10-08T13:53:45.559Z,18.60
2022-10-08T13:56:13.607Z,22.17
2022-10-08T13:58:40.910Z,18.20
2022-10-08T14:01:08.311Z,12.73
2022-10-08T14:03:35.609Z,16.65
2022-10-08T14:06:03.047Z,20.38
2022-10-08T14:08:31.458Z,18.00
2022-10-08T14:11:00.294Z,14.25
2022-10-08T14:13:29.642Z,17.10
2022-10-08T14:15:57.106Z,17.17
2022-10-08T14:18:24.422Z,19.10
2022-10-08T14:20:52.271Z,16.67
2022-10-08T14:23:20.339Z,17.48
2022-10-08T14:25:47.722Z,17.73
2022-10-08T14:28:15.036Z,17.23
2022-10-08T14:30:44.531Z,19.27
2022-10-08T14:33:11.987Z,18.50
2022-10-08T14:35:39.728Z,14.73
2022-10-08T14:38:08.745Z,19.67
2022-10-08T14:40:36.231Z,19.92
2022-10-08T14:43:03.579Z,16.13
2022-10-08T14:45:30.890Z,14.43
2022-10-08T14:47:58.355Z,13.27
2022-10-08T14:50:25.702Z,13.07
2022-10-08T14:52:53.111Z,20.85
2022-10-08T14:55:20.528Z,12.55
2022-10-08T14:57:48.260Z,16.42
2022-10-08T15:00:16.272Z,15.77
2022-10-08T15:02:43.589Z,13.23
2022-10-08T15:05:13.232Z,13.43
2022-10-08T15:07:40.575Z,13.48
2022-10-08T15:10:08.466Z,13.55
2022-10-08T15:12:35.834Z,12.60
2022-10-08T15:15:06.848Z,15.63
2022-10-08T15:17:34.179Z,10.83
2022-10-08T15:20:01.550Z,14.85
2022-10-08T15:22:29.131Z,12.73
2022-10-08T15:24:56.522Z,14.35
2022-10-08T15:27:23.959Z,14.13
2022-10-08T15:29:51.225Z,14.38
2022-10-08T15:32:19.591Z,10.98
2022-10-08T15:34:47.033Z,11.05
2022-10-08T15:37:14.736Z,11.10
2022-10-08T15:39:42.027Z,9.85
2022-10-08T15:42:13.338Z,11.27
2022-10-08T15:44:46.321Z,12.60
2022-10-08T15:47:15.056Z,11.85
2022-10-08T15:49:43.915Z,12.30
2022-10-08T15:52:17.230Z,10.27
2022-10-08T15:54:45.355Z,12.23
2022-10-08T15:57:14.531Z,11.65
2022-10-08T15:59:43.855Z,13.15
2022-10-08T16:02:17.204Z,14.25
2022-10-08T16:04:46.880Z,15.23
2022-10-08T16:07:14.372Z,14.27
2022-10-08T16:09:41.721Z,14.50
2022-10-08T16:12:09.237Z,17.10
2022-10-08T16:14:36.618Z,13.32
2022-10-08T16:17:04.059Z,12.50
2022-10-08T16:19:31.403Z,14.65
2022-10-08T16:21:58.868Z,15.90
2022-10-08T16:24:26.359Z,14.93
2022-10-08T16:26:53.677Z,10.95
2022-10-08T16:29:21.250Z,11.57
2022-10-08T16:31:48.762Z,17.13
2022-10-08T16:34:19.011Z,13.63
2022-10-08T16:36:48.358Z,24.95
2022-10-08T16:39:18.214Z,24.80
2022-10-08T16:41:45.717Z,18.92
2022-10-08T16:44:16.631Z,22.20
2022-10-08T16:46:48.394Z,19.75
2022-10-08T16:49:25.367Z,19.45
2022-10-08T16:51:55.556Z,17.20
2022-10-08T16:54:25.427Z,19.23
2022-10-08T16:56:52.959Z,16.83
2022-10-08T16:59:23.120Z,23.63
2022-10-08T17:01:52.876Z,18.05
2022-10-08T17:04:21.878Z,16.40
2022-10-08T17:06:49.425Z,16.13
2022-10-08T17:09:17.177Z,20.33
2022-10-08T17:11:44.878Z,19.85
2022-10-08T17:14:12.688Z,19.67
2022-10-08T17:16:43.220Z,30.52
2022-10-08T17:19:11.430Z,26.15
2022-10-08T17:21:39.030Z,24.70
2022-10-08T17:24:06.537Z,28.92
2022-10-08T17:26:33.977Z,23.08
2022-10-08T17:29:07.061Z,24.75
2022-10-08T17:31:35.694Z,20.30
2022-10-08T17:34:04.450Z,20.95
2022-10-08T17:36:36.986Z,21.05
2022-10-08T17:39:06.579Z,17.95
2022-10-08T17:41:36.401Z,18.38
2022-10-08T17:44:06.090Z,17.30
2022-10-08T17:46:36.616Z,22.83
2022-10-08T17:49:04.137Z,18.00
2022-10-08T17:51:51.099Z,18.25
2022-10-08T17:54:19.854Z,19.63
2022-10-08T17:56:48.119Z,23.00
2022-10-08T17:59:17.367Z,19.25
2022-10-08T18:01:45.768Z,17.40
2022-10-08T18:04:16.448Z,16.25
2022-10-08T18:06:46.451Z,18.55
2022-10-08T18:09:18.657Z,19.17
2022-10-08T18:11:50.940Z,18.95
2022-10-08T18:14:19.446Z,17.90
2022-10-08T18:16:48.510Z,18.80
2022-10-08T18:19:17.158Z,18.42
2022-10-08T18:21:44.915Z,15.35
2022-10-08T18:24:12.263Z,17.75
2022-10-08T18:26:39.737Z,18.08
2022-10-08T18:29:09.784Z,16.92
2022-10-08T18:31:39.176Z,16.48
2022-10-08T18:34:10.388Z,17.05
2022-10-08T18:36:38.789Z,19.10
2022-10-08T18:39:17.626Z,20.85
2022-10-08T18:41:49.587Z,19.30
2022-10-08T18:44:22.769Z,20.88
2022-10-08T18:46:52.264Z,22.13
2022-10-08T18:49:24.239Z,16.13
2022-10-08T18:54:18.778Z,22.33
2022-10-08T18:56:46.155Z,19.10
2022-10-08T18:59:17.562Z,17.80
2022-10-08T19:01:47.553Z,23.50
2022-10-08T19:04:21.128Z,21.77
2022-10-08T19:06:50.129Z,21.02
2022-10-08T19:09:20.599Z,19.33
2022-10-08T19:11:51.004Z,24.33
2022-10-08T19:14:22.990Z,19.75
2022-10-08T19:19:20.456Z,20.83
2022-10-08T19:21:48.868Z,18.98
2022-10-08T19:24:19.486Z,22.45
2022-10-08T19:26:47.998Z,23.42
2022-10-08T19:29:18.910Z,21.05
2022-10-08T19:31:50.227Z,20.05
2022-10-08T19:34:20.740Z,21.75
2022-10-08T19:36:49.038Z,23.17
2022-10-08T19:39:22.718Z,20.60
2022-10-08T19:41:50.995Z,21.15
2022-10-08T19:44:19.527Z,21.20
2022-10-08T19:46:46.990Z,19.80
2022-10-08T19:49:15.451Z,24.55
2022-10-08T19:51:43.234Z,22.48
2022-10-08T19:54:10.995Z,19.13
2022-10-08T19:56:38.367Z,20.90
2022-10-08T19:59:06.250Z,21.88
2022-10-08T20:01:36.482Z,21.48
2022-10-08T20:04:05.811Z,21.52
2022-10-08T20:06:36.465Z,21.65
2022-10-08T20:09:05.079Z,26.30
2022-10-08T20:11:33.416Z,25.98
2022-10-08T20:14:00.882Z,19.55
2022-10-08T20:16:31.549Z,22.17
2022-10-08T20:19:01.598Z,21.48
2022-10-08T20:21:31.011Z,16.90
2022-10-08T20:23:58.953Z,21.88
2022-10-08T20:26:31.690Z,24.88
2022-10-08T20:29:04.884Z,24.75
2022-10-08T20:31:40.686Z,20.98
2022-10-08T20:34:17.750Z,20.42
2022-10-08T20:36:46.933Z,20.02
2022-10-08T20:39:16.230Z,19.27
2022-10-08T20:41:43.862Z,20.38
2022-10-08T20:44:11.348Z,19.35
2022-10-08T20:46:39.294Z,21.20
2022-10-08T20:49:07.178Z,20.90
2022-10-08T20:51:35.248Z,18.80
2022-10-08T20:54:06.942Z,19.77
2022-10-08T20:56:39.867Z,18.65
2022-10-08T20:59:16.549Z,20.52
2022-10-08T21:01:44.573Z,21.02
2022-10-08T21:04:12.260Z,22.58
2022-10-08T21:06:45.975Z,23.83
2022-10-08T21:09:14.845Z,19.23
2022-10-08T21:11:42.375Z,19.25
2022-10-08T21:14:10.474Z,22.70
2022-10-08T21:16:39.792Z,19.58
2022-10-08T21:19:21.988Z,22.58
2022-10-08T21:24:16.870Z,18.38
2022-10-08T21:26:44.231Z,20.88
2022-10-08T21:29:14.224Z,21.90
2022-10-08T21:31:42.386Z,20.83
2022-10-08T21:34:12.139Z,23.13
2022-10-08T21:36:40.837Z,20.60
2022-10-08T21:39:10.736Z,18.63
2022-10-08T21:41:40.692Z,16.38
2022-10-08T21:44:08.907Z,18.45
2022-10-08T21:46:38.591Z,19.98
2022-10-08T21:49:08.497Z,19.92
2022-10-08T21:51:36.232Z,19.17
2022-10-08T21:54:05.375Z,22.70
2022-10-08T21:56:35.289Z,22.30
2022-10-08T21:59:07.529Z,20.90
2022-10-08T22:01:49.777Z,21.42
2022-10-08T22:04:22.561Z,20.63
2022-10-08T22:06:52.595Z,21.65
2022-10-08T22:09:23.857Z,18.70
2022-10-08T22:11:52.197Z,22.05
2022-10-08T22:14:20.020Z,20.52
2022-10-08T22:16:47.928Z,22.17
2022-10-08T22:19:15.889Z,18.10
2022-10-08T22:21:43.279Z,20.92
2022-10-08T22:24:11.361Z,25.90
2022-10-08T22:26:42.329Z,21.30
2022-10-08T22:29:10.345Z,25.33
2022-10-08T22:31:38.436Z,20.75
2022-10-08T22:34:06.113Z,19.90
2022-10-08T22:36:37.160Z,17.52
2022-10-08T22:39:04.531Z,21.93
2022-10-08T22:41:33.049Z,23.92
2022-10-08T22:44:02.632Z,23.90
2022-10-08T22:46:34.191Z,20.77
2022-10-08T22:49:05.983Z,20.88
2022-10-08T22:51:33.534Z,21.38
2022-10-08T22:54:00.953Z,19.25
2022-10-08T22:56:32.267Z,20.00
2022-10-08T22:59:00.250Z,20.40
2022-10-08T23:01:29.287Z,20.85
2022-10-08T23:03:57.251Z,23.40
2022-10-08T23:06:29.518Z,20.15
2022-10-08T23:08:59.763Z,23.40
2022-10-08T23:11:28.662Z,22.08
2022-10-08T23:13:58.659Z,20.98
2022-10-08T23:16:28.714Z,22.02
2022-10-08T23:18:58.903Z,23.50
2022-10-08T23:21:27.850Z,20.67
2022-10-08T23:23:56.212Z,27.27
2022-10-08T23:26:27.651Z,20.40
2022-10-08T23:29:00.221Z,21.10
2022-10-08T23:31:34.077Z,21.75
2022-10-08T23:34:02.482Z,23.35
2022-10-08T23:36:41.801Z,23.02
2022-10-08T23:39:12.513Z,20.50
2022-10-08T23:41:39.914Z,21.45
2022-10-08T23:44:08.919Z,19.63
2022-10-08T23:46:36.627Z,19.80
2022-10-08T23:49:04.607Z,20.38
2022-10-08T23:51:32.333Z,20.65
2022-10-08T23:54:01.260Z,25.80
2022-10-08T23:56:29.002Z,20.27
2022-10-08T23:58:56.706Z,19.23
